Latest Weather Observations for Camden

IDN60801

Issued at 3:42 pm EST Wednesday 20 June 2018 (issued every 10 minutes, with the page automatically refreshed every 10 minutes)

About weather observations | Map of weather stations | Latest weather observations for NSW | Other Formats
Station Details ID: 068192 Name: CAMDEN AIRPORT AWS Lat: -34.04 Lon: 150.69 Height: 73.9 m
Data from the previous 72 hours. | See also: Recent months at Camden
Date/Time
EST
Temp
°C
App
Temp
°C
Dew
Point
°C
Rel
Hum
%
Delta-T
°C
Wind Press
QNH
hPa
Press
MSL
hPa
Rain since
9am
mm
Dir  Spd
km/h
Gust
km/h
Spd
kts
Gust
kts
20/03:30pm 15.6 12.9 5.8 52 4.7 SE 9 13 5 7 1026.5 1026.6 0.0
20/03:00pm 17.4 13.5 5.4 45 5.8 SE 15 20 8 11 1026.2 1026.3 0.0
20/02:30pm 17.5 14.5 5.8 46 5.7 S 11 15 6 8 1026.2 1026.3 0.0
20/02:00pm 17.8 14.1 6.3 47 5.7 SSE 15 22 8 12 1026.1 1026.2 0.0
20/01:30pm 17.5 12.8 6.1 47 5.6 SSE 20 26 11 14 1026.5 1026.6 0.0
20/01:00pm 17.0 12.9 6.2 49 5.3 S 17 26 9 14 1026.5 1026.6 0.0
20/12:30pm 17.2 13.5 6.4 49 5.3 S 15 26 8 14 1026.8 1026.9 0.0
20/12:00pm 17.0 13.3 6.2 49 5.3 S 15 20 8 11 1027.1 1027.2 0.0
20/11:30am 16.6 12.9 6.1 50 5.1 S 15 22 8 12 1027.6 1027.7 0.0
20/11:00am 16.4 12.7 6.5 52 4.8 S 15 22 8 12 1027.9 1028.0 0.0
20/10:30am 16.0 12.3 6.4 53 4.7 SSW 15 20 8 11 1028.2 1028.3 0.0
20/10:00am 15.1 11.1 6.7 57 4.1 SSW 17 24 9 13 1028.3 1028.4 0.0
20/09:30am 14.4 11.4 7.9 65 3.2 SW 13 17 7 9 1028.3 1028.4 0.0
20/09:00am 13.4 10.0 7.6 68 2.8 SW 15 20 8 11 1028.1 1028.2 1.6
20/08:30am 11.9 9.0 8.0 77 1.9 SW 13 19 7 10 1028.0 1028.1 1.6
20/08:00am 9.8 7.7 6.5 80 1.5 SW 7 9 4 5 1028.0 1028.1 1.6
20/07:30am 9.9 8.6 7.5 85 1.1 SW 4 9 2 5 1028.0 1028.1 1.6
20/07:00am 8.4 7.4 7.2 92 0.6 SW 2 11 1 6 1028.0 1028.1 1.6
20/06:30am 9.3 7.0 7.3 87 0.9 SSW 9 13 5 7 1027.5 1027.6 1.6
20/06:00am 8.4 7.1 6.2 86 1.0 SSW 2 7 1 4 1027.4 1027.5 1.6
20/05:30am 9.6 7.2 7.0 84 1.2 SE 9 11 5 6 1027.1 1027.2 1.6
20/05:00am 10.9 8.3 7.6 80 1.6 S 11 19 6 10 1027.0 1027.1 1.6
20/04:30am 10.8 9.0 7.3 79 1.7 S 6 13 3 7 1026.9 1027.0 1.6
20/04:00am 10.9 7.8 7.4 79 1.7 SW 13 17 7 9 1026.7 1026.8 1.6
20/03:30am 11.5 8.1 7.8 78 1.8 SW 15 24 8 13 1026.7 1026.8 1.6
20/03:00am 11.8 8.9 8.3 79 1.7 SW 13 17 7 9 1026.8 1026.9 1.6
20/02:30am 12.2 9.2 7.9 75 2.1 SW 13 17 7 9 1026.8 1026.9 1.6
20/02:00am 12.3 9.4 8.2 76 2.0 WSW 13 19 7 10 1026.3 1026.4 1.6
20/01:30am 11.9 8.6 8.2 78 1.8 WSW 15 22 8 12 1026.4 1026.5 1.6
20/01:00am 11.3 8.4 8.0 80 1.6 SW 13 20 7 11 1025.9 1026.0 1.6
20/12:30am 11.1 8.0 7.4 78 1.8 SW 13 17 7 9 1025.6 1025.7 1.6
20/12:00am 11.1 8.1 7.6 79 1.7 SW 13 17 7 9 1025.6 1025.7 1.6
 
Date/Time
EST
Temp
°C
App
Temp
°C
Dew
Point
°C
Rel
Hum
%
Delta-T
°C
Wind Press
QNH
hPa
Press
MSL
hPa
Rain since
9am
mm
Dir  Spd
km/h
Gust
km/h
Spd
kts
Gust
kts
19/11:30pm 10.7 8.0 7.4 80 1.6 SW 11 15 6 8 1025.5 1025.6 1.6
19/11:00pm 10.5 7.8 7.2 80 1.6 SW 11 15 6 8 1025.5 1025.6 1.6
19/10:30pm 10.6 8.3 7.3 80 1.6 SW 9 13 5 7 1025.6 1025.7 1.6
19/10:00pm 10.6 7.5 7.1 79 1.7 SW 13 15 7 8 1025.6 1025.7 1.6
19/09:30pm 11.1 8.0 7.4 78 1.8 SW 13 19 7 10 1025.6 1025.7 1.6
19/09:00pm 10.9 8.6 7.4 79 1.7 WSW 9 11 5 6 1025.8 1025.9 1.6
19/08:30pm 10.9 8.9 7.2 78 1.8 SSW 7 9 4 5 1025.8 1025.9 1.6
19/08:00pm 11.5 9.6 7.6 77 1.9 SSW 7 9 4 5 1025.8 1025.9 1.4
19/07:30pm 12.4 10.1 7.3 71 2.5 SSW 9 15 5 8 1025.6 1025.7 1.4
19/07:00pm 12.9 10.6 7.6 70 2.6 SW 9 17 5 9 1025.5 1025.6 1.4
19/06:30pm 12.8 10.5 7.5 70 2.6 SSW 9 15 5 8 1025.1 1025.2 1.4
19/06:00pm 12.8 8.9 7.3 69 2.7 SW 17 22 9 12 1024.2 1024.3 1.4
19/05:30pm 13.2 9.3 7.0 66 3.0 SW 17 24 9 13 1023.7 1023.8 1.4
19/05:00pm 13.6 8.7 6.9 64 3.2 SSW 22 30 12 16 1023.3 1023.4 1.4
19/04:30pm 14.1 9.7 6.7 61 3.6 SSW 19 30 10 16 1023.3 1023.4 1.4
19/04:00pm 14.5 9.2 6.6 59 3.8 SSW 24 32 13 17 1023.1 1023.2 1.4
19/03:30pm 15.1 9.3 6.1 55 4.3 SSW 26 39 14 21 1022.8 1022.9 1.4
19/03:00pm 15.1 10.9 8.1 63 3.5 SW 20 32 11 17 1022.6 1022.7 1.4
19/02:30pm 14.0 10.6 9.0 72 2.5 SW 17 24 9 13 1022.7 1022.8 1.4
19/02:00pm 12.4 9.2 9.8 84 1.3 SW 17 26 9 14 1022.6 1022.7 1.4
19/01:30pm 12.3 8.3 9.1 81 1.6 S 20 37 11 20 1023.4 1023.5 1.0
19/01:00pm 15.3 10.1 7.3 59 3.9 SSW 24 35 13 19 1022.6 1022.7 0.0
19/12:30pm 14.3 10.0 8.0 66 3.1 S 20 32 11 17 1022.6 1022.7 0.0
19/12:00pm 14.8 9.8 6.6 58 4.0 S 22 35 12 19 1023.0 1023.1 0.0
19/11:30am 15.4 10.1 6.9 57 4.2 SSW 24 35 13 19 1022.7 1022.8 0.0
19/11:13am 16.1 9.7 6.8 54 4.6 SSW 30 48 16 26 1022.7 1022.8 0.0
19/11:00am 15.4 9.4 6.9 57 4.2 SSW 28 41 15 22 1022.7 1022.8 0.0
19/10:30am 13.6 9.3 6.9 64 3.3 SW 19 30 10 16 1023.0 1023.1 0.0
19/10:00am 14.1 8.1 6.9 62 3.5 SSW 28 35 15 19 1022.8 1022.9 0.0
19/09:30am 12.9 8.3 6.7 66 3.0 SW 20 33 11 18 1022.6 1022.7 0.0
19/09:00am 12.0 8.0 6.5 69 2.6 SW 17 26 9 14 1022.3 1022.4 1.4
19/08:30am 10.7 6.0 5.9 72 2.2 SW 20 30 11 16 1021.8 1021.9 1.4
19/08:00am 10.5 5.9 5.7 72 2.2 SW 19 26 10 14 1021.9 1022.0 1.4
19/07:30am 9.8 5.1 5.2 73 2.1 SW 19 26 10 14 1021.6 1021.7 1.4
19/07:00am 9.8 5.2 5.6 75 1.9 SW 19 26 10 14 1021.3 1021.4 1.4
19/06:30am 10.1 5.5 5.5 73 2.1 SSW 19 30 10 16 1021.4 1021.5 1.0
19/06:00am 10.2 5.2 4.8 69 2.4 SW 20 30 11 16 1020.6 1020.7 1.0
19/05:30am 10.0 5.0 4.8 70 2.3 SW 20 28 11 15 1020.3 1020.4 1.0
19/05:00am 9.5 4.8 5.1 74 2.0 SW 19 26 10 14 1020.2 1020.3 1.0
19/04:30am 9.4 4.6 4.8 73 2.1 SW 19 26 10 14 1020.3 1020.4 0.8
19/04:00am 9.6 4.5 4.2 69 2.4 SW 20 30 11 16 1020.3 1020.4 0.6
19/03:30am 10.1 4.5 3.4 63 2.9 SSW 22 35 12 19 1020.2 1020.3 0.6
19/03:00am 10.4 4.8 3.2 61 3.1 SW 22 30 12 16 1020.2 1020.3 0.6
19/02:30am 10.6 4.9 2.9 59 3.3 SW 22 35 12 19 1020.3 1020.4 0.6
19/02:00am 10.4 5.1 3.2 61 3.1 SW 20 28 11 15 1020.0 1020.1 0.6
19/01:30am 10.1 5.3 2.7 60 3.2 SW 17 26 9 14 1020.2 1020.3 0.6
19/01:00am 10.2 4.5 2.6 59 3.3 SW 22 30 12 16 1020.0 1020.1 0.6
19/12:30am 10.4 4.6 2.5 58 3.4 SW 22 35 12 19 1020.3 1020.4 0.6
19/12:00am 9.8 4.7 2.9 62 3.0 SW 19 26 10 14 1020.3 1020.4 0.6
 
Date/Time
EST
Temp
°C
App
Temp
°C
Dew
Point
°C
Rel
Hum
%
Delta-T
°C
Wind Press
QNH
hPa
Press
MSL
hPa
Rain since
9am
mm
Dir  Spd
km/h
Gust
km/h
Spd
kts
Gust
kts
18/11:30pm 9.9 4.9 3.4 64 2.8 SW 19 26 10 14 1020.4 1020.5 0.6
18/11:00pm 8.8 5.0 4.0 72 2.1 SW 13 17 7 9 1020.6 1020.7 0.6
18/10:30pm 9.4 5.0 4.8 73 2.1 SW 17 22 9 12 1020.7 1020.8 0.6
18/10:00pm 8.4 5.3 5.7 83 1.2 WSW 11 15 6 8 1020.8 1020.9 0.6
18/09:30pm 9.2 8.3 6.1 81 1.4 CALM 0 0 0 0 1020.7 1020.8 0.6
18/09:00pm 10.1 7.5 6.1 76 1.9 SSW 9 13 5 7 1020.4 1020.5 0.6
18/08:30pm 10.3 7.1 6.8 79 1.7 SW 13 19 7 10 1020.3 1020.4 0.6
18/08:00pm 10.4 7.9 8.0 85 1.2 WSW 11 17 6 9 1020.5 1020.6 0.6
18/07:30pm 10.5 7.1 7.6 82 1.4 SW 15 24 8 13 1020.3 1020.4 0.6
18/07:00pm 11.8 8.6 6.9 72 2.3 S 13 19 7 10 1020.1 1020.2 0.0
18/06:30pm 12.9 8.3 5.6 61 3.4 S 19 28 10 15 1019.6 1019.7 0.0
18/06:00pm 13.4 8.5 5.1 57 3.9 SSW 20 33 11 18 1019.0 1019.0 0.0
18/05:30pm 13.9 10.7 3.1 48 4.8 SW 9 13 5 7 1018.3 1018.3 0.0
18/05:00pm 14.3 10.2 2.5 45 5.2 SW 13 24 7 13 1017.9 1017.9 0.0
18/04:30pm 15.6 9.9 2.7 42 5.8 SW 22 37 12 20 1017.6 1017.6 0.0
18/04:00pm 16.2 10.3 1.9 38 6.4 SSW 22 30 12 16 1017.3 1017.3 0.0
18/03:30pm 16.4 9.7 1.7 37 6.5 SSW 26 37 14 20 1017.0 1017.0 0.0
18/03:00pm 17.1 11.0 2.7 38 6.6 SSW 24 37 13 20 1016.7 1016.7 0.0
18/02:30pm 17.4 10.9 2.6 37 6.8 SSW 26 39 14 21 1016.5 1016.5 0.0
18/02:00pm 17.0 10.1 2.6 38 6.6 SSW 28 44 15 24 1016.4 1016.4 0.0
18/01:32pm 17.3 9.7 2.9 38 6.6 SSW 32 50 17 27 1016.3 1016.3 0.0
18/01:30pm 17.2 9.3 2.4 37 6.7 SSW 33 50 18 27 1016.3 1016.3 0.0
18/01:12pm 17.2 10.0 3.1 39 6.5 SSW 30 52 16 28 1016.5 1016.5 0.0
18/01:00pm 16.7 9.5 3.1 40 6.2 SSW 30 46 16 25 1016.5 1016.5 0.0
18/12:31pm 16.4 9.2 2.8 40 6.2 SSW 30 54 16 29 1016.8 1016.8 0.0
18/12:30pm 16.7 9.6 3.4 41 6.1 S 30 41 16 22 1016.8 1016.8 0.0
18/12:11pm 16.8 10.1 3.5 41 6.2 SSW 28 46 15 25 1016.7 1016.7 0.0
18/12:00pm 16.4 8.7 3.5 42 6.0 SSW 33 48 18 26 1016.5 1016.5 0.0
18/11:30am 15.7 7.6 3.5 44 5.6 SSW 35 54 19 29 1016.6 1016.6 0.0
18/11:12am 15.1 7.6 3.3 45 5.4 SSW 32 54 17 29 1016.6 1016.6 0.0
18/11:00am 14.8 8.8 3.6 47 5.1 SW 24 39 13 21 1016.5 1016.5 0.0
18/10:30am 13.6 6.1 3.4 50 4.6 SW 32 52 17 28 1016.9 1016.9 0.0
18/10:20am 13.7 6.9 3.2 49 4.7 SW 28 50 15 27 1017.0 1017.0 0.0
18/10:00am 13.3 6.9 3.4 51 4.4 SSW 26 43 14 23 1017.4 1017.4 0.0
18/09:30am 12.8 6.0 2.9 51 4.4 SW 28 39 15 21 1017.1 1017.1 0.0
18/09:00am 12.3 6.5 2.5 51 4.3 SW 22 37 12 20 1016.8 1016.8 0.0
18/08:30am 11.9 5.7 2.4 52 4.1 SW 24 35 13 19 1016.2 1016.2 0.0
18/08:00am 11.5 6.1 2.5 54 3.9 SSW 20 35 11 19 1015.8 1015.8 0.0
18/07:30am 11.4 5.2 2.4 54 3.9 SW 24 39 13 21 1015.5 1015.5 0.0
18/07:00am 11.3 4.8 2.6 55 3.8 SW 26 39 14 21 1015.1 1015.2 0.0
18/06:30am 10.8 5.6 2.6 57 3.5 SW 19 33 10 18 1014.7 1014.8 0.0
18/06:00am 10.9 5.5 2.5 56 3.6 SW 20 28 11 15 1014.4 1014.5 0.0
18/05:30am 10.9 5.2 2.7 57 3.6 SW 22 32 12 17 1013.9 1014.0 0.0
18/05:00am 10.7 5.6 3.3 60 3.2 SW 19 28 10 15 1013.7 1013.8 0.0
18/04:30am 10.3 5.7 3.6 63 2.9 SW 17 26 9 14 1013.8 1013.9 0.0
18/04:00am 10.1 4.9 3.6 64 2.9 SW 20 26 11 14 1013.8 1013.9 0.0
18/03:30am 10.2 5.0 3.3 62 3.0 SW 20 28 11 15 1013.7 1013.8 0.0
18/03:00am 10.5 3.7 3.3 61 3.1 SW 28 41 15 22 1013.7 1013.8 0.0
18/02:30am 10.5 5.4 3.3 61 3.1 SW 19 33 10 18 1013.7 1013.8 0.0
18/02:00am 10.7 5.5 3.5 61 3.2 SW 20 30 11 16 1013.5 1013.6 0.0
18/01:30am 11.1 5.1 3.4 59 3.4 SW 24 32 13 17 1013.5 1013.6 0.0
18/01:00am 10.8 6.6 3.6 61 3.2 SW 15 20 8 11 1013.2 1013.3 0.0
18/12:30am 10.9 5.9 3.5 60 3.3 SW 19 26 10 14 1013.0 1013.1 0.0
18/12:00am 10.7 6.4 3.0 59 3.4 WSW 15 22 8 12 1012.8 1012.9 0.0
 
Date/Time
EST
Temp
°C
App
Temp
°C
Dew
Point
°C
Rel
Hum
%
Delta-T
°C
Wind Press
QNH
hPa
Press
MSL
hPa
Rain since
9am
mm
Dir  Spd
km/h
Gust
km/h
Spd
kts
Gust
kts
17/11:30pm 10.7 5.9 2.8 58 3.4 WSW 17 24 9 13 1012.9 1013.0 0.0
17/11:00pm 10.8 6.8 2.6 57 3.5 SW 13 19 7 10 1012.9 1013.0 0.0
17/10:30pm 10.6 7.3 2.4 57 3.5 WSW 9 15 5 8 1012.8 1012.9 0.0
17/10:00pm 10.5 5.7 2.4 57 3.5 W 17 28 9 15 1012.7 1012.8 0.0
17/09:30pm 9.6 5.1 2.2 60 3.1 W 15 22 8 12 1012.8 1012.9 0.0
17/09:00pm 8.8 6.3 1.5 60 3.0 WSW 4 9 2 5 1013.0 1013.1 0.0
17/08:30pm 9.4 6.3 1.6 58 3.2 NW 7 11 4 6 1012.8 1012.9 0.0
17/08:00pm 9.6 5.8 1.8 58 3.3 WNW 11 17 6 9 1012.6 1012.7 0.0
17/07:30pm 10.2 6.8 1.8 56 3.5 W 9 13 5 7 1012.8 1012.9 0.0
17/07:00pm 10.3 6.4 1.4 54 3.7 WSW 11 19 6 10 1012.8 1012.9 0.0
17/06:30pm 10.6 6.7 1.4 53 3.9 W 11 20 6 11 1012.6 1012.7 0.0
17/06:00pm 10.9 5.9 1.4 52 4.0 W 17 24 9 13 1012.1 1012.2 0.0
17/05:30pm 11.2 6.9 1.2 50 4.2 WSW 13 19 7 10 1011.9 1012.0 0.0
17/05:00pm 11.4 6.7 1.1 49 4.3 WSW 15 22 8 12 1011.7 1011.8 0.0
17/04:30pm 12.2 6.5 0.6 45 4.8 WSW 20 28 11 15 1011.5 1011.6 0.0
17/04:00pm 12.9 6.4 0.3 42 5.3 WSW 24 39 13 21 1011.2 1011.3 0.0

Other Formats:

Comma delimited format used in spreadsheet applications
http://www.bom.gov.au/fwo/IDN60801/IDN60801.94755.axf

JavaScript Object Notation format (JSON) in row-major order
http://www.bom.gov.au/fwo/IDN60801/IDN60801.94755.json